createdAt,value
2023-05-09T00:00:07.980Z,0.00
2023-05-09T00:01:07.993Z,0.00
2023-05-09T00:02:07.998Z,0.00
2023-05-09T00:03:08.068Z,0.00
2023-05-09T00:04:08.023Z,0.00
2023-05-09T00:05:07.948Z,0.00
2023-05-09T00:06:08.193Z,0.00
2023-05-09T00:07:07.930Z,0.00
2023-05-09T00:08:07.930Z,0.00
2023-05-09T00:09:07.928Z,0.00
2023-05-09T00:10:08.009Z,0.00
2023-05-09T00:11:07.905Z,0.00
2023-05-09T00:12:07.913Z,0.00
2023-05-09T00:13:07.937Z,0.00
2023-05-09T00:14:07.880Z,0.00
2023-05-09T00:15:07.872Z,0.00
2023-05-09T00:16:07.875Z,0.00
2023-05-09T00:17:07.855Z,0.00
2023-05-09T00:18:07.849Z,0.00
2023-05-09T00:19:07.866Z,0.00
2023-05-09T00:20:07.831Z,0.00
2023-05-09T00:22:07.983Z,0.00
2023-05-09T00:23:07.966Z,0.00
2023-05-09T00:24:09.107Z,0.00
2023-05-09T00:25:09.028Z,0.00
2023-05-09T00:26:09.119Z,0.00
2023-05-09T00:27:09.024Z,0.00
2023-05-09T00:28:09.015Z,0.00
2023-05-09T00:29:08.999Z,0.00
2023-05-09T00:30:09.019Z,0.00
2023-05-09T00:31:09.001Z,0.00
2023-05-09T00:32:09.042Z,0.00
2023-05-09T00:33:09.045Z,0.00
2023-05-09T00:34:08.967Z,0.00
2023-05-09T00:35:08.964Z,0.00
2023-05-09T00:36:08.992Z,0.00
2023-05-09T00:37:08.952Z,0.00
2023-05-09T00:38:08.955Z,0.00
2023-05-09T00:39:08.929Z,0.00
2023-05-09T00:40:08.916Z,0.00
2023-05-09T00:41:08.921Z,0.00
2023-05-09T00:42:09.008Z,0.00
2023-05-09T00:43:08.907Z,0.00
2023-05-09T00:44:08.910Z,0.00
2023-05-09T00:45:08.882Z,0.00
2023-05-09T00:46:08.902Z,0.00
2023-05-09T00:47:08.901Z,0.00
2023-05-09T00:48:08.863Z,0.00
2023-05-09T00:49:08.868Z,0.00
2023-05-09T00:50:08.854Z,0.00
2023-05-09T00:51:08.833Z,0.00
2023-05-09T00:52:08.828Z,0.00
2023-05-09T00:53:08.820Z,0.00
2023-05-09T00:54:09.340Z,0.00
2023-05-09T00:55:09.799Z,0.00
2023-05-09T00:56:08.791Z,0.00
2023-05-09T00:57:08.788Z,0.00
2023-05-09T00:58:08.886Z,0.00
2023-05-09T00:59:08.775Z,0.00
2023-05-09T01:00:08.762Z,0.00
2023-05-09T01:01:08.823Z,0.00
2023-05-09T01:02:08.752Z,0.00
2023-05-09T01:03:08.840Z,0.00
2023-05-09T01:04:08.741Z,0.00
2023-05-09T01:05:08.726Z,0.00
2023-05-09T01:06:08.744Z,0.00
2023-05-09T01:07:08.717Z,0.00
2023-05-09T01:08:08.707Z,0.00
2023-05-09T01:09:08.718Z,0.00
2023-05-09T01:10:08.691Z,0.00
2023-05-09T01:11:08.756Z,0.00
2023-05-09T01:12:08.671Z,0.00
2023-05-09T01:13:08.737Z,0.00
2023-05-09T01:14:08.755Z,0.00
2023-05-09T01:15:08.650Z,0.00
2023-05-09T01:16:08.767Z,0.00
2023-05-09T01:17:08.627Z,0.00
2023-05-09T01:18:08.710Z,0.00
2023-05-09T01:19:08.616Z,0.00
2023-05-09T01:20:08.620Z,0.00
2023-05-09T01:21:08.607Z,0.00
2023-05-09T01:22:08.592Z,0.00
2023-05-09T01:23:08.582Z,0.00
2023-05-09T01:24:09.582Z,0.00
2023-05-09T01:25:08.575Z,0.00
2023-05-09T01:26:08.577Z,0.00
2023-05-09T01:27:08.548Z,0.00
2023-05-09T01:28:08.546Z,0.00
2023-05-09T01:29:08.536Z,0.00
2023-05-09T01:30:09.513Z,0.00
2023-05-09T01:31:08.555Z,0.00
2023-05-09T01:32:09.407Z,0.00
2023-05-09T01:33:08.572Z,0.00
2023-05-09T01:34:08.591Z,0.00
2023-05-09T01:35:08.500Z,0.00
2023-05-09T01:36:08.469Z,0.00
2023-05-09T01:37:09.528Z,0.00
2023-05-09T01:38:08.461Z,0.00
2023-05-09T01:39:08.480Z,0.00
2023-05-09T01:40:08.514Z,0.00
2023-05-09T01:41:08.456Z,0.00
2023-05-09T01:42:08.447Z,0.00
2023-05-09T01:43:08.412Z,0.00
2023-05-09T01:44:09.493Z,0.00
2023-05-09T01:45:08.408Z,0.00
2023-05-09T01:46:09.521Z,0.00
2023-05-09T01:47:08.436Z,0.00
2023-05-09T01:48:08.473Z,0.00
2023-05-09T01:49:08.375Z,0.00
2023-05-09T01:50:08.387Z,0.00
2023-05-09T01:51:08.385Z,0.00
2023-05-09T01:52:08.367Z,0.00
2023-05-09T01:53:08.351Z,0.00
2023-05-09T01:54:08.352Z,0.00
2023-05-09T01:55:08.336Z,0.00
2023-05-09T01:56:08.332Z,0.00
2023-05-09T01:57:08.311Z,0.00
2023-05-09T01:58:08.316Z,0.00
2023-05-09T01:59:08.311Z,0.00
2023-05-09T02:00:08.299Z,0.00
2023-05-09T02:01:08.318Z,0.00
2023-05-09T02:02:08.423Z,0.00
2023-05-09T02:03:08.328Z,0.00
2023-05-09T02:04:08.257Z,0.00
2023-05-09T02:05:08.266Z,0.00
2023-05-09T02:06:08.254Z,0.00
2023-05-09T02:07:08.239Z,0.00
2023-05-09T02:08:08.232Z,0.00
2023-05-09T02:09:08.226Z,0.00
2023-05-09T02:10:08.223Z,0.00
2023-05-09T02:11:08.207Z,0.00
2023-05-09T02:12:08.200Z,0.00
2023-05-09T02:13:08.268Z,0.00
2023-05-09T02:14:08.916Z,0.00
2023-05-09T02:15:08.177Z,0.00
2023-05-09T02:16:08.235Z,0.00
2023-05-09T02:17:08.154Z,0.00
2023-05-09T02:18:08.252Z,0.00
2023-05-09T02:19:08.147Z,0.00
2023-05-09T02:20:08.139Z,0.00
2023-05-09T02:21:08.202Z,0.00
2023-05-09T02:22:08.129Z,0.00
2023-05-09T02:23:08.116Z,0.00
2023-05-09T02:24:08.167Z,0.00
2023-05-09T02:25:10.026Z,0.00
2023-05-09T02:26:08.093Z,0.00
2023-05-09T02:27:08.097Z,0.00
2023-05-09T02:28:08.076Z,0.00
2023-05-09T02:29:08.058Z,0.00
2023-05-09T02:30:08.043Z,0.00
2023-05-09T02:31:08.046Z,0.00
2023-05-09T02:32:08.119Z,0.00
2023-05-09T02:33:08.055Z,0.00
2023-05-09T02:34:08.118Z,0.00
2023-05-09T02:35:08.012Z,0.00
2023-05-09T02:36:08.011Z,0.00
2023-05-09T02:37:08.005Z,0.00
2023-05-09T02:38:07.991Z,0.00
2023-05-09T02:39:07.989Z,0.00
2023-05-09T02:40:07.964Z,0.00
2023-05-09T02:41:08.930Z,0.00
2023-05-09T02:42:07.962Z,0.00
2023-05-09T02:43:07.944Z,0.00
2023-05-09T02:44:07.935Z,0.00
2023-05-09T02:45:07.968Z,0.00
2023-05-09T02:46:07.959Z,0.00
2023-05-09T02:47:07.918Z,0.00
2023-05-09T02:48:08.944Z,0.00
2023-05-09T02:49:10.108Z,0.00
2023-05-09T02:50:07.987Z,0.00
2023-05-09T02:51:07.882Z,0.00
2023-05-09T02:52:07.886Z,0.00
2023-05-09T02:53:07.899Z,0.00
2023-05-09T02:54:07.873Z,0.00
2023-05-09T02:55:07.854Z,0.00
2023-05-09T02:56:07.843Z,0.00
2023-05-09T02:57:07.833Z,4.00
2023-05-09T02:58:14.105Z,4.00
2023-05-09T02:59:09.836Z,0.00
2023-05-09T03:00:07.813Z,0.00
2023-05-09T03:01:07.808Z,0.00
2023-05-09T03:02:07.798Z,4.00
2023-05-09T03:03:08.065Z,0.00
2023-05-09T03:04:07.787Z,4.00
2023-05-09T03:05:07.790Z,0.00
2023-05-09T03:06:07.868Z,4.00
2023-05-09T03:07:07.819Z,4.00
2023-05-09T03:08:07.759Z,4.00
2023-05-09T03:09:07.731Z,4.00
2023-05-09T03:10:07.728Z,8.00
2023-05-09T03:11:07.721Z,4.00
2023-05-09T03:12:08.436Z,8.00
2023-05-09T03:13:07.736Z,8.00
2023-05-09T03:14:07.704Z,12.00
2023-05-09T03:15:07.688Z,8.00
2023-05-09T03:16:07.716Z,16.00
2023-05-09T03:17:07.690Z,16.00
2023-05-09T03:18:07.739Z,16.00
2023-05-09T03:19:07.692Z,20.00
2023-05-09T03:20:07.729Z,24.00
2023-05-09T03:21:07.646Z,28.00
2023-05-09T03:22:07.756Z,28.00
2023-05-09T03:23:07.632Z,32.00
2023-05-09T03:24:07.710Z,40.00
2023-05-09T03:25:07.654Z,48.00
2023-05-09T03:26:07.614Z,52.00
2023-05-09T03:27:07.603Z,60.00
2023-05-09T03:28:07.588Z,64.00
2023-05-09T03:29:07.597Z,76.00
2023-05-09T03:30:07.569Z,84.00
2023-05-09T03:31:07.583Z,96.00
2023-05-09T03:32:07.586Z,104.00
2023-05-09T03:33:07.595Z,116.00
2023-05-09T03:34:07.554Z,132.00
2023-05-09T03:35:07.529Z,148.00
2023-05-09T03:36:07.530Z,160.00
2023-05-09T03:37:07.525Z,180.00
2023-05-09T03:38:07.622Z,196.00
2023-05-09T03:39:07.514Z,212.00
2023-05-09T03:40:07.517Z,232.00
2023-05-09T03:41:07.492Z,256.00
2023-05-09T03:42:07.533Z,276.00
2023-05-09T03:43:07.488Z,300.00
2023-05-09T03:44:07.479Z,324.00
2023-05-09T03:45:07.480Z,352.00
2023-05-09T03:46:07.461Z,380.00
2023-05-09T03:47:07.553Z,412.00
2023-05-09T03:48:08.410Z,444.00
2023-05-09T03:49:07.949Z,476.00
2023-05-09T03:50:07.426Z,512.00
2023-05-09T03:51:07.426Z,552.00
2023-05-09T03:52:07.420Z,592.00
2023-05-09T03:53:07.428Z,636.00
2023-05-09T03:54:07.492Z,680.00
2023-05-09T03:55:08.412Z,728.00
2023-05-09T03:56:07.376Z,784.00
2023-05-09T03:57:08.367Z,836.00
2023-05-09T03:58:07.365Z,896.00
2023-05-09T03:59:07.408Z,956.00
2023-05-09T04:00:07.949Z,1024.00
2023-05-09T04:01:07.349Z,1088.00
2023-05-09T04:02:07.358Z,1156.00
2023-05-09T04:03:07.361Z,1220.00
2023-05-09T04:04:07.481Z,1288.00
2023-05-09T04:05:07.328Z,1368.00
2023-05-09T04:06:07.316Z,1460.00
2023-05-09T04:07:07.296Z,1560.00
2023-05-09T04:08:07.291Z,1660.00
2023-05-09T04:09:07.282Z,1760.00
2023-05-09T04:10:07.369Z,1860.00
2023-05-09T04:11:07.280Z,1968.00
2023-05-09T04:12:07.252Z,2076.00
2023-05-09T04:13:07.255Z,2172.00
2023-05-09T04:14:07.387Z,2284.00
2023-05-09T04:15:07.238Z,2424.00
2023-05-09T04:16:07.237Z,2540.00
2023-05-09T04:17:07.287Z,2672.00
2023-05-09T04:18:07.263Z,2792.00
2023-05-09T04:19:07.213Z,2888.00
2023-05-09T04:20:07.186Z,3348.00
2023-05-09T04:21:07.210Z,4152.00
2023-05-09T04:22:07.172Z,5420.00
2023-05-09T04:23:07.174Z,8024.00
2023-05-09T04:24:07.175Z,10336.00
2023-05-09T04:25:07.153Z,9568.00
2023-05-09T04:26:07.157Z,6696.00
2023-05-09T04:27:07.134Z,5752.00
2023-05-09T04:28:07.178Z,5248.00
2023-05-09T04:29:07.131Z,5892.00
2023-05-09T04:30:07.119Z,5948.00
2023-05-09T04:31:07.268Z,6004.00
2023-05-09T04:32:07.129Z,6720.00
2023-05-09T04:33:07.105Z,7288.00
2023-05-09T04:34:07.089Z,7424.00
2023-05-09T04:35:07.074Z,8668.00
2023-05-09T04:36:07.083Z,11616.00
2023-05-09T04:37:07.095Z,14944.00
2023-05-09T04:38:07.065Z,17728.00
2023-05-09T04:39:07.041Z,19008.00
2023-05-09T04:40:07.051Z,19744.00
2023-05-09T04:41:07.047Z,19808.00
2023-05-09T04:42:07.127Z,20704.00
2023-05-09T04:43:07.028Z,21984.00
2023-05-09T04:44:07.002Z,22208.00
2023-05-09T04:45:06.998Z,22592.00
2023-05-09T04:46:07.002Z,22400.00
2023-05-09T04:47:07.005Z,22624.00
2023-05-09T04:48:07.020Z,24416.00
2023-05-09T04:49:06.963Z,26080.00
2023-05-09T04:50:06.963Z,26720.00
2023-05-09T04:51:06.950Z,26848.00
2023-05-09T04:52:06.955Z,27552.00
2023-05-09T04:53:06.939Z,27904.00
2023-05-09T04:54:06.922Z,28352.00
2023-05-09T04:55:06.917Z,29824.00
2023-05-09T04:56:06.912Z,29824.00
2023-05-09T04:57:17.216Z,30112.00
2023-05-09T04:58:09.006Z,30144.00
2023-05-09T04:59:07.867Z,29824.00
2023-05-09T05:00:06.879Z,29632.00
2023-05-09T05:01:06.880Z,29248.00
2023-05-09T05:02:07.433Z,29664.00
2023-05-09T05:03:06.903Z,31872.00
2023-05-09T05:04:06.859Z,32416.00
2023-05-09T05:05:12.086Z,32000.00
2023-05-09T05:06:08.846Z,33120.00
2023-05-09T05:07:06.830Z,32832.00
2023-05-09T05:08:06.856Z,33344.00
2023-05-09T05:09:06.804Z,33440.00
2023-05-09T05:10:06.797Z,34080.00
2023-05-09T05:11:06.807Z,37312.00
2023-05-09T05:12:09.194Z,38400.00
2023-05-09T05:13:06.839Z,38944.00
2023-05-09T05:14:06.874Z,39360.00
2023-05-09T05:15:06.766Z,40800.00
2023-05-09T05:16:06.826Z,41280.00
2023-05-09T05:17:06.743Z,40640.00
2023-05-09T05:18:06.769Z,37984.00
2023-05-09T05:19:06.722Z,34336.00
2023-05-09T05:20:06.755Z,32928.00
2023-05-09T05:21:06.712Z,35776.00
2023-05-09T05:22:06.705Z,37856.00
2023-05-09T05:23:06.707Z,38272.00
2023-05-09T05:24:06.698Z,37792.00
2023-05-09T05:25:06.681Z,38816.00
2023-05-09T05:26:06.682Z,39424.00
2023-05-09T05:27:06.668Z,38624.00
2023-05-09T05:28:06.690Z,38336.00
2023-05-09T05:29:06.713Z,36832.00
2023-05-09T05:30:06.757Z,36768.00
2023-05-09T05:31:06.764Z,40352.00
2023-05-09T05:32:06.747Z,42272.00
2023-05-09T05:33:06.777Z,41600.00
2023-05-09T05:34:06.700Z,40928.00
2023-05-09T05:35:06.671Z,40736.00
2023-05-09T05:36:06.710Z,39360.00
2023-05-09T05:37:06.707Z,37632.00
2023-05-09T05:38:06.591Z,38912.00
2023-05-09T05:39:06.574Z,22784.00
2023-05-09T05:40:06.572Z,13236.00
2023-05-09T05:41:06.919Z,26752.00
2023-05-09T05:42:06.575Z,11412.00
2023-05-09T05:43:06.563Z,17408.00
2023-05-09T05:44:06.541Z,15968.00
2023-05-09T05:45:08.421Z,16512.00
2023-05-09T05:46:07.607Z,21824.00
2023-05-09T05:47:06.513Z,36608.00
2023-05-09T05:48:06.574Z,29856.00
2023-05-09T05:49:06.510Z,27552.00
2023-05-09T05:50:07.486Z,25088.00
2023-05-09T05:51:06.474Z,22912.00
2023-05-09T05:52:06.464Z,16736.00
2023-05-09T05:53:06.524Z,39264.00
2023-05-09T05:54:06.460Z,40768.00
2023-05-09T05:55:06.467Z,40224.00
2023-05-09T05:56:06.453Z,25024.00
2023-05-09T05:58:13.263Z,19488.00
2023-05-09T05:59:13.650Z,27360.00
2023-05-09T06:00:16.136Z,20224.00
2023-05-09T06:01:14.618Z,19712.00
2023-05-09T06:02:14.394Z,14476.00
2023-05-09T06:03:14.519Z,16640.00
2023-05-09T06:04:14.438Z,11792.00
2023-05-09T06:05:14.551Z,13520.00
2023-05-09T06:06:14.307Z,14936.00
2023-05-09T06:07:14.282Z,12564.00
2023-05-09T06:08:14.324Z,10584.00
2023-05-09T06:09:14.289Z,14632.00
2023-05-09T06:10:14.265Z,14876.00
2023-05-09T06:11:14.267Z,10544.00
2023-05-09T06:12:14.283Z,11984.00
2023-05-09T06:13:14.288Z,9916.00
2023-05-09T06:14:14.239Z,9868.00
2023-05-09T06:15:14.469Z,9976.00
2023-05-09T06:16:19.645Z,10556.00
2023-05-09T06:17:16.342Z,9652.00
2023-05-09T06:18:14.210Z,9604.00
2023-05-09T06:19:14.219Z,9324.00
2023-05-09T06:20:14.198Z,9936.00
2023-05-09T06:21:14.189Z,8936.00
2023-05-09T06:22:14.189Z,8972.00
2023-05-09T06:23:14.168Z,8976.00
2023-05-09T06:24:23.500Z,11120.00
2023-05-09T06:25:16.374Z,13092.00
2023-05-09T06:26:14.144Z,13676.00
2023-05-09T06:27:14.234Z,13300.00
2023-05-09T06:28:14.640Z,10852.00
2023-05-09T06:29:14.717Z,10940.00
2023-05-09T06:30:24.657Z,9680.00
2023-05-09T06:31:16.162Z,9388.00
2023-05-09T06:32:14.174Z,10304.00
2023-05-09T06:33:14.188Z,9000.00
2023-05-09T06:34:14.086Z,12528.00
2023-05-09T06:35:14.284Z,9716.00
2023-05-09T06:36:14.060Z,12708.00
2023-05-09T06:37:14.061Z,12612.00
2023-05-09T06:38:14.049Z,12512.00
2023-05-09T06:39:14.038Z,12304.00
2023-05-09T06:40:14.043Z,12160.00
2023-05-09T06:41:14.041Z,11924.00
2023-05-09T06:42:14.014Z,11760.00
2023-05-09T06:43:14.031Z,11560.00
2023-05-09T06:44:14.999Z,11452.00
2023-05-09T06:45:14.149Z,11352.00
2023-05-09T06:46:14.019Z,11136.00
2023-05-09T06:47:13.978Z,11056.00
2023-05-09T06:48:14.649Z,9776.00
2023-05-09T06:49:14.065Z,10208.00
2023-05-09T06:50:14.647Z,9424.00
2023-05-09T06:51:13.948Z,8860.00
2023-05-09T06:52:13.934Z,8196.00
2023-05-09T06:53:14.683Z,7932.00
2023-05-09T06:54:13.928Z,8800.00
2023-05-09T06:55:14.166Z,9624.00
2023-05-09T06:56:13.910Z,10624.00
2023-05-09T06:57:13.901Z,10600.00
2023-05-09T06:58:13.897Z,10556.00
2023-05-09T06:59:13.884Z,9528.00
2023-05-09T07:00:13.892Z,8600.00
2023-05-09T07:01:13.918Z,9360.00
2023-05-09T07:02:13.852Z,10128.00
2023-05-09T07:03:13.868Z,10532.00
2023-05-09T07:04:13.853Z,10724.00
2023-05-09T07:05:14.106Z,11004.00
2023-05-09T07:06:13.834Z,11100.00
2023-05-09T07:07:13.819Z,11032.00
2023-05-09T07:08:13.807Z,10708.00
2023-05-09T07:09:13.814Z,10808.00
2023-05-09T07:10:13.830Z,10672.00
2023-05-09T07:11:13.816Z,9824.00
2023-05-09T07:12:13.785Z,9860.00
2023-05-09T07:13:13.827Z,10008.00
2023-05-09T07:14:13.780Z,9756.00
2023-05-09T07:15:15.563Z,9492.00
2023-05-09T07:16:14.782Z,9532.00
2023-05-09T07:17:22.972Z,9540.00
2023-05-09T07:18:15.725Z,9488.00
2023-05-09T07:19:13.748Z,9568.00
2023-05-09T07:20:13.729Z,9524.00
2023-05-09T07:21:13.807Z,8572.00
2023-05-09T07:22:13.747Z,8568.00
2023-05-09T07:23:14.662Z,9112.00
2023-05-09T07:24:13.736Z,9112.00
2023-05-09T07:25:13.780Z,8508.00
2023-05-09T07:26:14.275Z,9068.00
2023-05-09T07:27:13.699Z,8060.00
2023-05-09T07:28:13.645Z,8260.00
2023-05-09T07:29:13.643Z,8800.00
2023-05-09T07:30:14.418Z,8036.00
2023-05-09T07:31:13.658Z,8532.00
2023-05-09T07:32:13.741Z,8512.00
2023-05-09T07:33:13.663Z,8508.00
2023-05-09T07:34:13.639Z,8440.00
2023-05-09T07:35:13.735Z,8284.00
2023-05-09T07:36:13.588Z,8148.00
2023-05-09T07:37:15.377Z,7976.00
2023-05-09T07:38:13.580Z,7872.00
2023-05-09T07:39:13.567Z,7892.00
2023-05-09T07:40:13.820Z,7688.00
2023-05-09T07:41:13.560Z,7636.00
2023-05-09T07:42:13.552Z,7568.00
2023-05-09T07:43:13.542Z,7548.00
2023-05-09T07:44:13.524Z,7368.00
2023-05-09T07:45:13.726Z,7580.00
2023-05-09T07:46:13.556Z,7480.00
2023-05-09T07:47:13.510Z,7428.00
2023-05-09T07:48:13.503Z,7200.00
2023-05-09T07:49:13.507Z,6364.00
2023-05-09T07:50:13.496Z,6672.00
2023-05-09T07:51:13.483Z,6936.00
2023-05-09T07:52:13.475Z,7224.00
2023-05-09T07:53:13.556Z,7424.00
2023-05-09T07:54:13.449Z,7484.00
2023-05-09T07:55:13.805Z,7680.00
2023-05-09T07:56:13.434Z,7680.00
2023-05-09T07:57:13.435Z,7800.00
2023-05-09T07:58:14.262Z,7856.00
2023-05-09T07:59:13.442Z,7984.00
2023-05-09T08:00:13.403Z,8064.00
2023-05-09T08:01:13.421Z,8024.00
2023-05-09T08:02:13.443Z,8044.00
2023-05-09T08:03:13.517Z,8024.00
2023-05-09T08:04:13.495Z,7944.00
2023-05-09T08:05:13.698Z,7996.00
2023-05-09T08:06:13.358Z,7252.00
2023-05-09T08:07:13.408Z,6700.00
2023-05-09T08:08:13.338Z,6488.00
2023-05-09T08:09:13.456Z,7116.00
2023-05-09T08:10:13.334Z,6216.00
2023-05-09T08:11:13.326Z,5912.00
2023-05-09T08:12:13.335Z,5900.00
2023-05-09T08:13:13.319Z,5732.00
2023-05-09T08:14:15.035Z,5648.00
2023-05-09T08:15:13.769Z,5656.00
2023-05-09T08:16:13.337Z,5772.00
2023-05-09T08:17:13.294Z,5852.00
2023-05-09T08:18:13.285Z,6012.00
2023-05-09T08:19:13.275Z,6132.00
2023-05-09T08:20:13.274Z,6204.00
2023-05-09T08:21:14.280Z,6316.00
2023-05-09T08:22:13.248Z,6248.00
2023-05-09T08:23:13.247Z,6448.00
2023-05-09T08:24:13.235Z,6144.00
2023-05-09T08:25:13.563Z,6112.00
2023-05-09T08:26:13.204Z,6080.00
2023-05-09T08:27:13.199Z,6072.00
2023-05-09T08:28:13.187Z,5996.00
2023-05-09T08:29:13.180Z,5992.00
2023-05-09T08:30:13.198Z,6080.00
2023-05-09T08:31:13.204Z,6188.00
2023-05-09T08:32:13.204Z,6320.00
2023-05-09T08:33:13.207Z,6368.00
2023-05-09T08:34:13.160Z,6484.00
2023-05-09T08:35:13.288Z,6484.00
2023-05-09T08:36:13.189Z,6188.00
2023-05-09T08:37:15.095Z,5944.00
2023-05-09T08:38:14.133Z,5964.00
2023-05-09T08:39:13.106Z,5996.00
2023-05-09T08:40:13.895Z,5992.00
2023-05-09T08:41:13.201Z,5948.00
2023-05-09T08:42:13.101Z,5940.00
2023-05-09T08:43:13.088Z,5964.00
2023-05-09T08:44:13.074Z,5872.00
2023-05-09T08:45:13.081Z,5828.00
2023-05-09T08:46:13.076Z,5740.00
2023-05-09T08:47:13.049Z,6008.00
2023-05-09T08:48:13.042Z,6768.00
2023-05-09T08:49:13.042Z,5896.00
2023-05-09T08:50:13.380Z,5440.00
2023-05-09T08:51:13.037Z,5224.00
2023-05-09T08:52:13.002Z,5040.00
2023-05-09T08:53:13.725Z,4900.00
2023-05-09T08:54:13.009Z,4756.00
2023-05-09T08:55:13.037Z,4728.00
2023-05-09T08:56:12.985Z,4716.00
2023-05-09T08:57:13.082Z,4764.00
2023-05-09T08:58:12.979Z,5944.00
2023-05-09T08:59:12.983Z,5140.00
2023-05-09T09:00:13.147Z,4996.00
2023-05-09T09:01:15.742Z,5676.00
2023-05-09T09:02:12.971Z,5600.00
2023-05-09T09:04:19.865Z,5816.00
2023-05-09T09:05:40.053Z,6052.00
2023-05-09T09:06:20.798Z,5080.00
2023-05-09T09:07:20.785Z,4900.00
2023-05-09T09:08:19.803Z,4856.00
2023-05-09T09:09:20.629Z,4852.00
2023-05-09T09:10:19.779Z,5056.00
2023-05-09T09:11:20.860Z,6076.00
2023-05-09T09:12:20.947Z,5976.00
2023-05-09T09:13:20.888Z,6080.00
2023-05-09T09:14:20.853Z,5708.00
2023-05-09T09:15:20.850Z,5604.00
2023-05-09T09:16:20.970Z,5344.00
2023-05-09T09:17:20.858Z,5132.00
2023-05-09T09:18:21.696Z,5028.00
2023-05-09T09:19:20.809Z,4988.00
2023-05-09T09:20:20.833Z,5020.00
2023-05-09T09:21:20.939Z,5436.00
2023-05-09T09:22:20.814Z,4904.00
2023-05-09T09:23:21.625Z,4880.00
2023-05-09T09:25:27.477Z,4924.00
2023-05-09T09:26:27.476Z,4976.00
2023-05-09T09:27:27.571Z,5032.00
2023-05-09T09:28:27.457Z,5172.00
2023-05-09T09:29:27.445Z,5272.00
2023-05-09T09:30:27.432Z,5308.00
2023-05-09T09:31:27.450Z,5244.00
2023-05-09T09:32:27.477Z,5280.00
2023-05-09T09:33:27.430Z,5288.00
2023-05-09T09:34:27.432Z,5452.00
2023-05-09T09:35:27.397Z,5504.00
2023-05-09T09:36:27.392Z,6048.00
2023-05-09T09:37:28.497Z,6092.00
2023-05-09T09:38:29.469Z,5948.00
2023-05-09T09:39:29.022Z,6012.00
2023-05-09T09:40:28.473Z,5996.00
2023-05-09T09:41:28.456Z,6052.00
2023-05-09T09:42:28.455Z,6128.00
2023-05-09T09:43:30.396Z,6100.00
2023-05-09T09:44:28.496Z,6040.00
2023-05-09T09:45:28.425Z,5968.00
2023-05-09T09:46:28.484Z,5932.00
2023-05-09T09:47:28.456Z,5892.00
2023-05-09T09:48:28.750Z,5888.00
2023-05-09T09:49:28.405Z,5900.00
2023-05-09T09:50:28.384Z,5888.00
2023-05-09T09:51:28.386Z,5772.00
2023-05-09T09:52:30.210Z,5812.00
2023-05-09T09:53:28.373Z,5836.00
2023-05-09T09:54:28.401Z,6028.00
2023-05-09T09:55:28.386Z,6084.00
2023-05-09T09:56:28.354Z,6708.00
2023-05-09T09:57:29.242Z,6964.00
2023-05-09T09:58:28.318Z,7004.00
2023-05-09T09:59:29.430Z,6616.00
2023-05-09T10:00:30.256Z,6284.00
2023-05-09T10:01:30.205Z,5828.00
2023-05-09T10:02:28.318Z,5720.00
2023-05-09T10:03:28.310Z,5620.00
2023-05-09T10:04:28.272Z,5580.00
2023-05-09T10:05:28.257Z,5616.00
2023-05-09T10:06:29.144Z,5740.00
2023-05-09T10:07:28.287Z,6060.00
2023-05-09T10:08:31.156Z,5616.00
2023-05-09T10:09:29.255Z,5264.00
2023-05-09T10:10:30.317Z,5200.00
2023-05-09T10:11:28.223Z,4952.00
2023-05-09T10:12:28.230Z,4880.00
2023-05-09T10:13:28.287Z,4836.00
2023-05-09T10:14:29.209Z,4888.00
2023-05-09T10:15:30.118Z,4924.00
2023-05-09T10:16:42.605Z,4940.00
2023-05-09T10:17:30.285Z,4996.00
2023-05-09T10:18:29.180Z,5128.00
2023-05-09T10:19:28.158Z,5256.00
2023-05-09T10:20:28.663Z,5292.00
2023-05-09T10:21:29.161Z,5384.00
2023-05-09T10:22:28.138Z,5376.00
2023-05-09T10:23:29.639Z,5388.00
2023-05-09T10:24:28.149Z,5364.00
2023-05-09T10:25:28.165Z,5376.00
2023-05-09T10:26:28.146Z,5292.00
2023-05-09T10:27:28.096Z,5300.00
2023-05-09T10:28:28.094Z,5368.00
2023-05-09T10:29:28.075Z,5388.00
2023-05-09T10:30:30.330Z,5408.00
2023-05-09T10:31:28.291Z,5380.00
2023-05-09T10:32:28.082Z,5404.00
2023-05-09T10:33:28.064Z,5468.00
2023-05-09T10:34:28.045Z,5452.00
2023-05-09T10:35:28.038Z,5460.00
2023-05-09T10:36:28.022Z,5424.00
2023-05-09T10:37:28.032Z,5496.00
2023-05-09T10:38:28.009Z,5592.00
2023-05-09T10:39:28.039Z,5676.00
2023-05-09T10:40:28.019Z,5820.00
2023-05-09T10:41:27.989Z,5832.00
2023-05-09T10:42:27.974Z,6068.00
2023-05-09T10:43:27.967Z,6312.00
2023-05-09T10:44:27.974Z,6272.00
2023-05-09T10:45:27.968Z,6112.00
2023-05-09T10:46:28.015Z,6208.00
2023-05-09T10:47:28.101Z,6192.00
2023-05-09T10:48:27.938Z,6172.00
2023-05-09T10:49:27.932Z,6124.00
2023-05-09T10:50:28.652Z,5932.00
2023-05-09T10:51:27.940Z,6124.00
2023-05-09T10:52:29.737Z,6000.00
2023-05-09T10:53:27.898Z,6312.00
2023-05-09T10:54:29.304Z,6408.00
2023-05-09T10:55:27.937Z,6436.00
2023-05-09T10:56:27.864Z,6516.00
2023-05-09T10:57:27.865Z,5780.00
2023-05-09T10:58:27.859Z,6240.00
2023-05-09T10:59:28.676Z,5824.00
2023-05-09T11:00:27.829Z,5704.00
2023-05-09T11:01:27.828Z,6392.00
2023-05-09T11:02:27.850Z,5856.00
2023-05-09T11:03:29.245Z,6576.00
2023-05-09T11:04:29.659Z,6472.00
2023-05-09T11:06:36.972Z,5832.00
2023-05-09T11:07:36.964Z,5828.00
2023-05-09T11:08:36.944Z,5888.00
2023-05-09T11:09:37.452Z,6472.00
2023-05-09T11:10:36.922Z,6528.00
2023-05-09T11:11:36.916Z,6500.00
2023-05-09T11:12:37.470Z,6496.00
2023-05-09T11:13:36.928Z,6428.00
2023-05-09T11:14:38.477Z,6412.00
2023-05-09T11:15:36.904Z,6028.00
2023-05-09T11:16:36.986Z,12404.00
2023-05-09T11:17:36.919Z,12612.00
2023-05-09T11:18:36.976Z,12400.00
2023-05-09T11:19:36.866Z,12588.00
2023-05-09T11:20:36.880Z,12756.00
2023-05-09T11:21:36.838Z,12756.00
2023-05-09T11:22:37.867Z,13052.00
2023-05-09T11:23:36.838Z,13420.00
2023-05-09T11:24:36.823Z,13624.00
2023-05-09T11:25:36.800Z,13980.00
2023-05-09T11:26:36.805Z,13896.00
2023-05-09T11:27:37.914Z,13936.00
2023-05-09T11:28:37.905Z,13628.00
2023-05-09T11:29:37.882Z,13704.00
2023-05-09T11:30:37.890Z,13584.00
2023-05-09T11:31:37.917Z,13732.00
2023-05-09T11:32:37.903Z,13820.00
2023-05-09T11:33:41.558Z,13784.00
2023-05-09T11:34:37.839Z,13760.00
2023-05-09T11:35:38.485Z,13696.00
2023-05-09T11:36:39.560Z,13652.00
2023-05-09T11:37:37.832Z,13676.00
2023-05-09T11:38:38.475Z,13724.00
2023-05-09T11:39:37.809Z,13716.00
2023-05-09T11:40:40.576Z,13776.00
2023-05-09T11:41:39.469Z,13840.00
2023-05-09T11:42:38.579Z,13904.00
2023-05-09T11:43:37.764Z,14032.00
2023-05-09T11:44:37.772Z,14240.00
2023-05-09T11:45:38.065Z,14328.00
2023-05-09T11:46:56.423Z,14228.00
2023-05-09T11:47:37.823Z,14196.00
2023-05-09T11:48:38.483Z,14220.00
2023-05-09T11:49:37.819Z,14076.00
2023-05-09T11:50:37.746Z,14084.00
2023-05-09T11:51:37.736Z,14148.00
2023-05-09T11:52:41.490Z,14192.00
2023-05-09T11:53:40.483Z,14480.00
2023-05-09T11:54:38.063Z,14432.00
2023-05-09T11:55:37.711Z,14348.00
2023-05-09T11:56:39.589Z,14200.00
2023-05-09T11:57:37.678Z,14216.00
2023-05-09T11:58:42.488Z,14080.00
2023-05-09T11:59:38.579Z,14028.00
2023-05-09T12:00:38.478Z,13780.00
2023-05-09T12:01:37.662Z,13596.00
2023-05-09T12:02:37.758Z,13340.00
2023-05-09T12:03:39.638Z,13140.00
2023-05-09T12:04:37.643Z,12988.00
2023-05-09T12:05:37.724Z,12720.00
2023-05-09T12:06:37.609Z,12308.00
2023-05-09T12:07:37.602Z,12080.00
2023-05-09T12:08:37.595Z,11992.00
2023-05-09T12:09:37.597Z,12132.00
2023-05-09T12:10:37.617Z,12004.00
2023-05-09T12:11:38.171Z,11648.00
2023-05-09T12:12:37.562Z,11524.00
2023-05-09T12:13:37.568Z,11428.00
2023-05-09T12:14:37.540Z,11316.00
2023-05-09T12:15:37.804Z,11212.00
2023-05-09T12:16:37.544Z,11052.00
2023-05-09T12:17:38.501Z,11020.00
2023-05-09T12:18:38.518Z,10948.00
2023-05-09T12:19:37.503Z,10924.00
2023-05-09T12:20:37.530Z,10896.00
2023-05-09T12:21:37.602Z,10876.00
2023-05-09T12:22:37.548Z,10920.00
2023-05-09T12:23:37.475Z,10940.00
2023-05-09T12:24:37.991Z,11048.00